Time;durP1;ratioP1;P1;durP2;ratioP2;P2;SDS_P1;SDS_P2;PMS_P1;PMS_P2;Temp;Humidity;BMP_temperature;BMP_pressure;BME280_temperature;BME280_humidity;BME280_pressure;Samples;Min_cycle;Max_cycle;Signal;HPM_P1;HPM_P2
2022/07/28 00:01:12;;;;;;;17.17;9.38;;;;;;;17.57;88.21;94645.53;1690110;83;21407;-57
2022/07/28 00:03:40;;;;;;;13.10;9.10;;;;;;;17.60;88.50;94650.10;1693693;83;20946;-56
2022/07/28 00:06:08;;;;;;;15.85;10.13;;;;;;;17.65;88.43;94643.84;1692897;83;21002;-57
2022/07/28 00:08:37;;;;;;;16.27;10.72;;;;;;;17.68;87.90;94642.20;1706976;82;21041;-56
2022/07/28 00:11:07;;;;;;;19.50;11.25;;;;;;;17.68;87.72;94641.45;1711423;83;21491;-57
2022/07/28 00:13:36;;;;;;;17.95;11.22;;;;;;;17.70;87.38;94638.31;1710370;83;21306;-56
2022/07/28 00:16:06;;;;;;;13.20;10.25;;;;;;;17.68;87.09;94643.59;1689896;83;21013;-57
2022/07/28 00:18:35;;;;;;;17.32;10.20;;;;;;;17.66;86.58;94635.63;1670569;84;21072;-57
2022/07/28 00:21:03;;;;;;;15.88;11.20;;;;;;;17.54;86.45;94641.73;1688025;83;21066;-56
2022/07/28 00:23:33;;;;;;;16.20;11.88;;;;;;;17.43;86.78;94641.64;1687869;84;20939;-57
2022/07/28 00:26:02;;;;;;;14.73;9.03;;;;;;;17.34;87.06;94646.61;1693555;83;21172;-56
2022/07/28 00:28:30;;;;;;;15.53;9.45;;;;;;;17.27;87.94;94643.62;1710924;82;20997;-56
2022/07/28 00:30:59;;;;;;;13.58;9.65;;;;;;;17.20;88.88;94640.52;1704583;83;21528;-57
2022/07/28 00:33:28;;;;;;;15.58;10.63;;;;;;;17.17;88.99;94648.45;1719256;83;21004;-57
2022/07/28 00:35:56;;;;;;;13.30;10.35;;;;;;;17.13;88.74;94649.30;1738906;81;21076;-57
2022/07/28 00:38:26;;;;;;;16.07;10.23;;;;;;;17.10;88.54;94651.05;1735664;81;21063;-56
2022/07/28 00:41:10;;;;;;;16.40;10.30;;;;;;;17.06;88.60;94652.53;1710694;82;20984;-58
2022/07/28 00:43:46;;;;;;;14.00;9.53;;;;;;;17.04;88.60;94641.12;1708499;83;21083;-58
2022/07/28 00:46:17;;;;;;;16.30;9.80;;;;;;;17.05;88.66;94639.25;1677404;84;20970;-58
2022/07/28 00:48:47;;;;;;;12.28;9.73;;;;;;;17.06;88.58;94642.80;1681675;84;21052;-56
2022/07/28 00:51:16;;;;;;;14.00;10.70;;;;;;;17.02;88.67;94642.23;1685095;84;21170;-58
2022/07/28 00:53:45;;;;;;;13.80;9.68;;;;;;;17.01;89.00;94639.33;1690535;83;21568;-56
2022/07/28 00:56:13;;;;;;;14.78;8.23;;;;;;;17.00;88.88;94630.23;1696966;83;20958;-57
2022/07/28 00:58:42;;;;;;;11.93;9.58;;;;;;;16.97;88.44;94626.28;1695722;84;21028;-57
2022/07/28 01:01:14;;;;;;;10.78;9.05;;;;;;;16.92;88.30;94625.61;1652755;85;20969;-57
2022/07/28 01:03:41;;;;;;;9.65;8.65;;;;;;;16.85;88.15;94626.03;1712152;82;21804;-57
2022/07/28 01:06:33;;;;;;;13.30;9.40;;;;;;;16.82;88.28;94631.18;1696080;83;21156;-57
2022/07/28 01:09:41;;;;;;;12.03;9.33;;;;;;;16.78;88.25;94623.69;1687813;84;21069;-57
2022/07/28 01:12:22;;;;;;;12.78;9.95;;;;;;;16.73;88.68;94628.58;1686490;83;20971;-57
2022/07/28 01:15:04;;;;;;;12.25;9.25;;;;;;;16.62;88.95;94624.28;1680798;84;21096;-57
2022/07/28 01:17:49;;;;;;;13.20;9.20;;;;;;;16.52;88.84;94632.00;1686587;82;21184;-57
2022/07/28 01:20:51;;;;;;;11.88;9.28;;;;;;;16.43;89.00;94634.16;1710519;83;20998;-57
2022/07/28 01:23:45;;;;;;;10.78;7.92;;;;;;;16.36;89.24;94631.81;1713569;83;21020;-58
2022/07/28 01:26:43;;;;;;;16.97;9.40;;;;;;;16.31;89.40;94631.84;1714770;83;21005;-57
2022/07/28 01:29:37;;;;;;;19.85;12.73;;;;;;;16.22;90.02;94629.84;1712328;83;21033;-57
2022/07/28 01:32:10;;;;;;;19.48;11.35;;;;;;;16.03;90.70;94629.97;1624925;85;21447;-57
2022/07/28 01:34:51;;;;;;;16.75;10.75;;;;;;;15.90;91.75;94626.77;1662942;84;20983;-56
2022/07/28 01:37:22;;;;;;;18.37;10.98;;;;;;;15.89;92.24;94631.42;1657807;85;21046;-57
2022/07/28 01:39:52;;;;;;;13.78;10.53;;;;;;;15.88;92.72;94631.29;1656484;84;21066;-57
2022/07/28 01:42:22;;;;;;;16.82;9.45;;;;;;;15.87;93.23;94624.21;1665384;83;21084;-57
2022/07/28 01:44:51;;;;;;;16.73;9.88;;;;;;;15.86;93.31;94628.98;1683981;83;21251;-57
2022/07/28 01:47:19;;;;;;;11.53;9.33;;;;;;;15.84;93.27;94632.09;1709461;82;20999;-57
2022/07/28 01:49:47;;;;;;;16.50;10.28;;;;;;;15.83;93.70;94625.02;1689397;83;21097;-56
2022/07/28 01:52:16;;;;;;;14.85;10.88;;;;;;;15.83;93.63;94622.24;1713102;83;21065;-57
2022/07/28 01:54:44;;;;;;;19.10;11.22;;;;;;;15.82;93.97;94629.04;1701306;83;21098;-56
2022/07/28 01:57:17;;;;;;;15.53;10.63;;;;;;;15.81;94.06;94626.13;1719391;82;21138;-57
2022/07/28 01:59:43;;;;;;;17.57;9.70;;;;;;;15.83;93.91;94625.02;1721215;82;21485;-57
2022/07/28 02:02:13;;;;;;;13.85;10.08;;;;;;;15.83;93.80;94623.62;1726702;81;20988;-57
2022/07/28 02:04:41;;;;;;;16.40;11.33;;;;;;;15.85;93.90;94628.06;1725159;82;21442;-58
2022/07/28 02:07:09;;;;;;;17.80;11.30;;;;;;;15.84;93.99;94631.48;1721537;82;20988;-58
2022/07/28 02:09:39;;;;;;;16.48;10.50;;;;;;;15.87;94.07;94633.92;1704749;83;21495;-57
2022/07/28 02:12:09;;;;;;;13.80;9.10;;;;;;;15.87;93.76;94633.92;1661931;85;21006;-57
2022/07/28 02:14:36;;;;;;;15.55;11.57;;;;;;;15.85;93.33;94645.49;1652685;85;21014;-57
2022/07/28 02:17:10;;;;;;;18.73;10.65;;;;;;;15.78;93.31;94651.45;1713786;82;21003;-57
2022/07/28 02:19:38;;;;;;;14.50;10.90;;;;;;;15.74;93.59;94648.09;1695534;83;21065;-58
2022/07/28 02:22:06;;;;;;;16.10;10.55;;;;;;;15.71;93.49;94643.52;1691284;83;21124;-57
2022/07/28 02:24:34;;;;;;;11.68;9.08;;;;;;;15.69;93.54;94641.85;1691860;84;20946;-57
2022/07/28 02:27:16;;;;;;;13.08;9.48;;;;;;;15.68;93.58;94650.03;1690848;83;21009;-56
2022/07/28 02:29:49;;;;;;;14.40;10.32;;;;;;;15.66;93.68;94651.14;1711420;83;21017;-57
2022/07/28 02:32:21;;;;;;;16.80;10.75;;;;;;;15.60;93.97;94661.39;1727268;82;21145;-58
2022/07/28 02:34:50;;;;;;;16.05;9.78;;;;;;;15.60;94.55;94662.78;1705426;83;21647;-57
2022/07/28 02:37:19;;;;;;;12.95;10.13;;;;;;;15.63;94.25;94665.98;1700830;83;21000;-57
2022/07/28 02:39:52;;;;;;;13.50;9.38;;;;;;;15.60;93.95;94657.23;1707330;83;21497;-59
2022/07/28 02:42:25;;;;;;;14.03;10.28;;;;;;;15.60;94.18;94660.62;1699380;84;20956;-57
2022/07/28 02:44:58;;;;;;;14.87;9.10;;;;;;;15.59;94.02;94661.25;1668369;83;21038;-57
2022/07/28 02:47:28;;;;;;;12.60;9.38;;;;;;;15.57;94.25;94674.06;1676357;83;21231;-57
2022/07/28 02:49:57;;;;;;;13.48;9.53;;;;;;;15.53;94.24;94668.70;1612028;86;21051;-57
2022/07/28 02:52:25;;;;;;;12.05;9.68;;;;;;;15.52;94.29;94665.79;1656570;84;21062;-57
2022/07/28 02:54:54;;;;;;;14.07;11.12;;;;;;;15.53;94.42;94667.32;1687236;83;20993;-57
2022/07/28 02:57:22;;;;;;;19.57;11.00;;;;;;;15.51;94.25;94667.03;1709973;82;20990;-57
2022/07/28 02:59:50;;;;;;;11.93;9.78;;;;;;;15.46;94.16;94669.72;1704457;82;21156;-58
2022/07/28 03:02:21;;;;;;;10.98;8.85;;;;;;;15.41;94.25;94678.11;1709901;83;21001;-57
2022/07/28 03:04:55;;;;;;;11.60;9.05;;;;;;;15.39;94.49;94686.11;1708951;83;21016;-56
2022/07/28 03:07:25;;;;;;;15.80;11.70;;;;;;;15.32;94.18;94682.35;1703653;83;21008;-57
2022/07/28 03:09:55;;;;;;;25.60;11.85;;;;;;;15.23;94.44;94681.05;1668188;83;21066;-57
2022/07/28 03:12:24;;;;;;;15.50;10.45;;;;;;;15.20;94.75;94684.01;1699873;84;21264;-57
2022/07/28 03:14:53;;;;;;;21.65;11.38;;;;;;;15.20;94.87;94687.53;1659263;85;21545;-57
2022/07/28 03:17:21;;;;;;;17.48;11.15;;;;;;;15.24;95.05;94688.73;1652143;84;21220;-57
2022/07/28 03:19:50;;;;;;;16.57;10.08;;;;;;;15.29;95.22;94686.09;1706651;82;21004;-57
2022/07/28 03:22:18;;;;;;;15.98;11.03;;;;;;;15.33;95.34;94688.05;1727784;82;21036;-57
2022/07/28 03:24:49;;;;;;;15.32;9.35;;;;;;;15.35;95.17;94688.96;1705298;83;21802;-57
2022/07/28 03:27:37;;;;;;;16.57;10.30;;;;;;;15.41;95.08;94690.59;1634479;85;21023;-58
2022/07/28 03:30:13;;;;;;;14.65;10.65;;;;;;;15.47;94.89;94694.81;1720463;82;21116;-56
2022/07/28 03:32:57;;;;;;;18.07;11.70;;;;;;;15.53;94.80;94697.08;1725001;82;21017;-58
2022/07/28 03:35:26;;;;;;;16.75;11.88;;;;;;;15.60;94.55;94702.22;1712080;82;21088;-58
2022/07/28 03:38:11;;;;;;;19.25;9.65;;;;;;;15.63;93.82;94696.48;1720081;82;21552;-58
2022/07/28 03:40:40;;;;;;;16.82;10.38;;;;;;;15.66;93.57;94701.67;1708253;82;21517;-58
2022/07/28 03:43:09;;;;;;;20.57;12.07;;;;;;;15.72;93.73;94701.91;1708124;83;20982;-56
2022/07/28 03:45:37;;;;;;;14.90;10.78;;;;;;;15.80;93.50;94703.66;1691784;84;20982;-56
2022/07/28 03:48:06;;;;;;;14.65;10.32;;;;;;;15.86;93.32;94698.34;1708389;82;21089;-57
2022/07/28 03:50:35;;;;;;;13.55;9.75;;;;;;;15.90;92.74;94706.48;1704785;83;21173;-57
2022/07/28 03:53:03;;;;;;;13.18;9.83;;;;;;;15.92;92.31;94710.28;1714342;83;21326;-58
2022/07/28 03:55:32;;;;;;;14.73;10.55;;;;;;;15.95;92.01;94717.63;1699927;83;21000;-58
2022/07/28 03:58:00;;;;;;;12.68;10.28;;;;;;;15.97;92.06;94714.39;1706579;82;21483;-58
2022/07/28 04:00:28;;;;;;;18.02;10.90;;;;;;;15.98;92.28;94716.70;1711944;82;21040;-59
2022/07/28 04:02:57;;;;;;;15.38;9.48;;;;;;;16.02;92.21;94715.09;1709890;82;21825;-57
2022/07/28 04:05:24;;;;;;;13.38;8.93;;;;;;;16.07;91.84;94719.98;1689290;82;21060;-58
2022/07/28 04:07:54;;;;;;;13.40;11.22;;;;;;;16.10;91.59;94716.98;1707612;83;21079;-58
2022/07/28 04:10:22;;;;;;;12.70;9.60;;;;;;;16.09;91.32;94723.03;1703326;83;20974;-57
2022/07/28 04:12:55;;;;;;;17.77;11.30;;;;;;;16.07;91.15;94719.34;1704787;83;21412;-56
2022/07/28 04:15:24;;;;;;;12.53;9.18;;;;;;;16.04;91.27;94721.70;1701211;84;21109;-57
2022/07/28 04:17:52;;;;;;;12.40;9.98;;;;;;;16.07;91.35;94722.75;1652336;86;21125;-57
2022/07/28 04:20:21;;;;;;;20.02;10.70;;;;;;;16.10;91.32;94726.69;1707905;83;21079;-57
2022/07/28 04:22:49;;;;;;;14.05;10.45;;;;;;;16.17;91.28;94729.08;1699565;82;21015;-55
2022/07/28 04:25:18;;;;;;;17.20;10.72;;;;;;;16.23;90.99;94722.98;1678235;84;21439;-57
2022/07/28 04:27:46;;;;;;;17.50;9.70;;;;;;;16.27;90.65;94722.78;1711041;83;21136;-57
2022/07/28 04:30:19;;;;;;;14.30;10.43;;;;;;;16.30;90.30;94719.78;1714285;82;21556;-56
2022/07/28 04:32:51;;;;;;;14.73;10.08;;;;;;;16.33;89.90;94718.84;1713209;82;20988;-61
2022/07/28 04:35:19;;;;;;;12.65;9.05;;;;;;;16.34;89.62;94718.97;1707244;82;21036;-56
2022/07/28 04:37:48;;;;;;;14.03;10.18;;;;;;;16.34;89.15;94716.20;1705132;83;20992;-52
2022/07/28 04:40:17;;;;;;;13.00;8.83;;;;;;;16.28;89.04;94715.34;1688322;83;21259;-52
2022/07/28 04:42:45;;;;;;;9.60;8.58;;;;;;;16.28;89.07;94721.67;1707041;83;20993;-53
2022/07/28 04:45:14;;;;;;;15.58;9.78;;;;;;;16.34;89.09;94725.91;1689826;83;20993;-54
2022/07/28 04:47:42;;;;;;;11.20;9.35;;;;;;;16.39;88.92;94728.02;1667572;83;21027;-52
2022/07/28 04:50:13;;;;;;;10.85;9.48;;;;;;;16.50;88.70;94721.21;1644057;86;21125;-52
2022/07/28 04:52:41;;;;;;;11.15;8.98;;;;;;;16.57;88.13;94725.73;1648103;85;22270;-52
2022/07/28 04:55:10;;;;;;;11.93;8.65;;;;;;;16.63;87.74;94734.14;1643354;85;21014;-54
2022/07/28 04:57:38;;;;;;;11.55;9.33;;;;;;;16.67;87.56;94732.69;1703132;83;20997;-55
2022/07/28 05:00:13;;;;;;;13.43;9.70;;;;;;;16.75;87.52;94724.70;1703327;83;21039;-56
2022/07/28 05:02:41;;;;;;;12.33;10.20;;;;;;;16.84;87.49;94723.15;1714849;83;20962;-55
2022/07/28 05:05:11;;;;;;;19.30;11.43;;;;;;;16.93;87.33;94721.63;1717009;83;21318;-54
2022/07/28 05:07:40;;;;;;;10.82;9.13;;;;;;;17.02;87.28;94724.23;1724371;82;21117;-55
2022/07/28 05:10:10;;;;;;;11.35;9.40;;;;;;;17.14;87.02;94723.89;1685211;82;21039;-54
2022/07/28 05:12:39;;;;;;;15.53;8.70;;;;;;;17.27;86.68;94724.90;1700787;84;22342;-54
2022/07/28 05:15:08;;;;;;;13.28;10.45;;;;;;;17.36;86.04;94713.02;1695079;83;21015;-54
2022/07/28 05:17:37;;;;;;;12.30;10.75;;;;;;;17.45;85.69;94722.57;1689087;84;21212;-55
2022/07/28 05:20:07;;;;;;;19.40;11.00;;;;;;;17.54;85.13;94709.11;1694184;82;21544;-58
2022/07/28 05:22:45;;;;;;;10.10;8.90;;;;;;;17.63;84.82;94711.73;1713240;82;20958;-55
2022/07/28 05:25:19;;;;;;;13.68;10.05;;;;;;;17.80;84.58;94709.86;1701563;82;21083;-55
2022/07/28 05:27:47;;;;;;;13.65;9.95;;;;;;;17.92;83.87;94708.66;1705933;83;21025;-57
2022/07/28 05:30:16;;;;;;;12.88;9.83;;;;;;;18.02;83.52;94712.80;1704890;83;21889;-58
2022/07/28 05:32:47;;;;;;;12.82;9.93;;;;;;;18.11;83.06;94702.84;1663876;84;21063;-55
2022/07/28 05:35:16;;;;;;;16.55;10.40;;;;;;;18.22;82.52;94711.41;1698269;83;21097;-56
2022/07/28 05:37:44;;;;;;;11.65;9.00;;;;;;;18.34;82.09;94708.09;1705268;83;21093;-55
2022/07/28 05:40:13;;;;;;;16.07;11.75;;;;;;;18.41;81.36;94705.61;1680098;83;20962;-55
2022/07/28 05:42:46;;;;;;;12.40;9.83;;;;;;;18.46;81.34;94707.65;1687741;83;21730;-54
2022/07/28 05:45:14;;;;;;;14.63;10.15;;;;;;;18.54;81.11;94705.16;1703150;83;20988;-56
2022/07/28 05:47:48;;;;;;;13.10;9.53;;;;;;;18.60;80.59;94708.10;1683882;83;21009;-54
2022/07/28 05:50:16;;;;;;;11.00;9.75;;;;;;;18.70;80.66;94709.43;1667224;84;21007;-53
2022/07/28 05:52:47;;;;;;;19.92;9.53;;;;;;;18.86;80.25;94707.96;1666689;84;20991;-57
2022/07/28 05:55:16;;;;;;;14.35;10.80;;;;;;;19.01;79.92;94714.10;1644297;84;21318;-54
2022/07/28 05:57:45;;;;;;;14.43;11.25;;;;;;;19.16;79.70;94717.45;1670250;83;21055;-58
2022/07/28 06:00:17;;;;;;;13.78;10.85;;;;;;;19.30;79.65;94717.25;1688641;84;21047;-55
2022/07/28 06:02:46;;;;;;;17.92;10.23;;;;;;;19.44;79.49;94721.86;1687937;84;21167;-54
2022/07/28 06:05:14;;;;;;;12.88;10.23;;;;;;;19.59;78.96;94719.57;1654958;85;21109;-56
2022/07/28 06:07:42;;;;;;;11.60;9.45;;;;;;;19.74;78.57;94717.30;1682234;82;21087;-54
2022/07/28 06:10:15;;;;;;;12.00;9.98;;;;;;;19.88;78.07;94716.30;1706830;82;21337;-55
2022/07/28 06:12:48;;;;;;;15.65;9.40;;;;;;;20.03;77.31;94718.23;1709329;82;21154;-57
2022/07/28 06:15:24;;;;;;;11.57;9.68;;;;;;;20.17;76.92;94710.22;1680943;84;21045;-59
2022/07/28 06:17:54;;;;;;;11.80;9.30;;;;;;;20.34;75.93;94710.96;1710216;81;21081;-55
2022/07/28 06:20:23;;;;;;;12.90;8.40;;;;;;;20.46;75.25;94712.44;1695147;83;21635;-54
2022/07/28 06:22:53;;;;;;;11.03;8.15;;;;;;;20.56;74.85;94705.31;1674971;83;21018;-54
2022/07/28 06:25:24;;;;;;;9.85;8.85;;;;;;;20.66;74.25;94706.54;1692022;82;21595;-62
2022/07/28 06:27:55;;;;;;;16.70;8.63;;;;;;;20.75;73.94;94706.27;1713557;82;22164;-59
2022/07/28 06:30:22;;;;;;;15.05;10.23;;;;;;;20.89;73.60;94708.03;1672212;83;21046;-59
2022/07/28 06:32:50;;;;;;;11.22;9.90;;;;;;;21.06;73.16;94703.10;1674494;83;21980;-62
2022/07/28 06:35:18;;;;;;;15.98;10.20;;;;;;;21.16;72.16;94699.52;1651698;84;21058;-63
2022/07/28 06:37:46;;;;;;;13.08;8.95;;;;;;;21.22;71.75;94703.03;1661572;83;21066;-61
2022/07/28 06:40:18;;;;;;;11.93;8.25;;;;;;;21.31;71.90;94702.71;1683529;83;20990;-60
2022/07/28 06:42:48;;;;;;;12.23;8.40;;;;;;;21.34;71.35;94703.73;1632286;85;22406;-59
2022/07/28 06:45:16;;;;;;;12.07;8.70;;;;;;;21.39;71.30;94695.30;1689970;83;22498;-55
2022/07/28 06:47:45;;;;;;;11.65;9.58;;;;;;;21.44;71.21;94693.75;1646480;85;21048;-54
2022/07/28 06:50:13;;;;;;;9.73;8.53;;;;;;;21.54;70.90;94699.14;1686732;82;21177;-55
2022/07/28 06:52:41;;;;;;;14.55;9.03;;;;;;;21.66;70.19;94702.03;1694573;82;21044;-54
2022/07/28 06:55:10;;;;;;;14.30;8.80;;;;;;;21.73;69.60;94700.05;1682845;82;21150;-61
2022/07/28 06:57:38;;;;;;;11.53;8.60;;;;;;;21.85;69.91;94698.05;1693959;82;21177;-66
2022/07/28 07:00:07;;;;;;;10.08;8.60;;;;;;;21.98;68.52;94699.61;1703718;82;21031;-60
2022/07/28 07:02:39;;;;;;;9.48;7.58;;;;;;;22.06;68.13;94696.34;1706924;82;21008;-61
2022/07/28 07:05:09;;;;;;;9.53;8.30;;;;;;;22.15;67.94;94702.37;1656629;84;21182;-65
2022/07/28 07:07:37;;;;;;;15.90;10.00;;;;;;;22.25;66.59;94706.37;1635570;84;21093;-59
2022/07/28 07:10:08;;;;;;;9.50;7.40;;;;;;;22.29;66.77;94700.48;1699693;83;21265;-56
2022/07/28 07:12:38;;;;;;;8.63;7.47;;;;;;;22.32;66.96;94702.23;1664820;84;21008;-57
2022/07/28 07:15:12;;;;;;;8.78;7.03;;;;;;;22.36;67.04;94704.88;1652895;84;21030;-54
2022/07/28 07:17:40;;;;;;;10.50;7.62;;;;;;;22.45;66.08;94705.94;1654946;83;21466;-57
2022/07/28 07:20:09;;;;;;;7.55;6.85;;;;;;;22.48;65.70;94705.55;1672852;83;21099;-63
2022/07/28 07:22:43;;;;;;;10.80;7.60;;;;;;;22.50;65.84;94709.33;1665639;84;21059;-55
2022/07/28 07:25:15;;;;;;;7.90;6.62;;;;;;;22.54;65.20;94704.20;1650993;84;21071;-55
2022/07/28 07:27:43;;;;;;;9.63;6.80;;;;;;;22.59;64.83;94710.39;1666406;83;21205;-57
2022/07/28 07:30:13;;;;;;;9.90;7.20;;;;;;;22.62;64.87;94712.14;1706549;82;21100;-59
2022/07/28 07:32:41;;;;;;;9.25;7.22;;;;;;;22.68;64.67;94719.84;1699240;82;21448;-56
2022/07/28 07:35:09;;;;;;;9.50;7.10;;;;;;;22.71;65.17;94720.22;1683850;83;21343;-56
2022/07/28 07:37:36;;;;;;;11.35;6.83;;;;;;;22.73;64.75;94722.48;1652470;84;21129;-57
2022/07/28 07:40:06;;;;;;;10.58;7.10;;;;;;;22.80;64.23;94724.05;1685160;82;21118;-52
2022/07/28 07:42:34;;;;;;;13.38;6.78;;;;;;;22.92;64.29;94727.49;1679269;83;21071;-56
2022/07/28 07:45:02;;;;;;;10.98;7.92;;;;;;;22.98;62.85;94721.94;1680396;83;21672;-58
2022/07/28 07:47:32;;;;;;;9.45;6.47;;;;;;;23.11;63.57;94726.88;1669662;83;21134;-54
2022/07/28 07:50:00;;;;;;;10.28;6.97;;;;;;;23.25;62.78;94728.53;1656023;84;21066;-57
2022/07/28 07:52:29;;;;;;;8.58;6.30;;;;;;;23.33;62.33;94733.02;1642858;85;21480;-56
2022/07/28 07:54:56;;;;;;;7.42;5.97;;;;;;;23.35;61.37;94728.28;1680294;83;21208;-61
2022/07/28 07:57:25;;;;;;;7.08;6.37;;;;;;;23.33;61.09;94727.40;1651902;83;20991;-57
2022/07/28 07:59:54;;;;;;;8.65;6.60;;;;;;;23.36;61.40;94728.39;1692730;83;21172;-59
2022/07/28 08:02:22;;;;;;;7.95;6.55;;;;;;;23.35;61.47;94722.01;1698807;82;21382;-65
2022/07/28 08:04:51;;;;;;;14.35;7.67;;;;;;;23.29;60.94;94726.95;1703484;82;21073;-54
2022/07/28 08:07:19;;;;;;;5.72;5.22;;;;;;;23.23;61.52;94719.22;1702213;82;21184;-59
2022/07/28 08:09:48;;;;;;;8.63;6.00;;;;;;;23.29;62.05;94719.16;1695916;82;22257;-60
2022/07/28 08:12:16;;;;;;;6.50;5.83;;;;;;;23.45;61.43;94715.37;1702708;82;21706;-62
2022/07/28 08:14:44;;;;;;;7.65;6.28;;;;;;;23.55;60.55;94708.83;1693099;83;21481;-62
2022/07/28 08:17:14;;;;;;;8.18;5.97;;;;;;;23.67;60.76;94710.20;1678837;83;21069;-63
2022/07/28 08:19:42;;;;;;;5.80;5.25;;;;;;;23.82;59.85;94713.33;1681564;84;21079;-57
2022/07/28 08:22:11;;;;;;;7.83;6.42;;;;;;;23.94;60.21;94711.84;1698548;82;21193;-63
2022/07/28 08:24:38;;;;;;;7.70;5.80;;;;;;;24.02;59.27;94716.31;1693263;83;21226;-68
2022/07/28 08:27:07;;;;;;;6.62;5.78;;;;;;;24.11;60.18;94708.12;1694060;82;21037;-64
2022/07/28 08:29:35;;;;;;;8.08;5.67;;;;;;;24.24;59.83;94708.91;1702580;82;21016;-66
2022/07/28 08:32:04;;;;;;;6.28;5.40;;;;;;;24.41;59.05;94714.27;1681521;82;21084;-62
2022/07/28 08:34:31;;;;;;;7.35;5.12;;;;;;;24.51;58.50;94718.17;1670166;82;21100;-63
2022/07/28 08:37:02;;;;;;;10.45;5.65;;;;;;;24.60;57.91;94714.98;1661204;84;21265;-56
2022/07/28 08:39:32;;;;;;;5.92;5.22;;;;;;;24.72;57.25;94710.67;1660580;83;21620;-53
2022/07/28 08:42:10;;;;;;;6.83;5.12;;;;;;;24.88;56.96;94716.61;1663721;84;21127;-55
2022/07/28 08:45:04;;;;;;;7.28;5.83;;;;;;;25.00;56.86;94712.29;1658539;84;21027;-56
2022/07/28 08:47:34;;;;;;;9.58;5.35;;;;;;;25.20;56.77;94718.05;1666661;83;21055;-54
2022/07/28 08:50:01;;;;;;;8.35;5.70;;;;;;;25.30;55.29;94719.77;1657889;84;21270;-60
2022/07/28 08:52:30;;;;;;;8.40;5.50;;;;;;;25.36;56.01;94711.32;1655600;83;21078;-57
2022/07/28 08:54:58;;;;;;;7.58;5.67;;;;;;;25.43;55.11;94714.10;1661681;83;21085;-59
2022/07/28 08:57:35;;;;;;;5.83;5.28;;;;;;;25.46;54.22;94715.19;1677703;83;21186;-55
2022/07/28 09:00:04;;;;;;;7.67;4.30;;;;;;;25.52;53.86;94717.89;1664844;84;21152;-56
2022/07/28 09:02:32;;;;;;;7.15;5.10;;;;;;;25.57;53.88;94722.64;1616477;86;21308;-55
2022/07/28 09:05:00;;;;;;;11.38;6.20;;;;;;;25.58;53.01;94724.16;1612323;86;21142;-56
2022/07/28 09:07:31;;;;;;;7.55;6.17;;;;;;;25.45;52.97;94722.79;1692646;83;21014;-56
2022/07/28 09:09:58;;;;;;;8.50;5.67;;;;;;;25.33;53.42;94729.95;1656726;83;21925;-62
2022/07/28 09:12:38;;;;;;;5.28;4.78;;;;;;;25.34;53.49;94730.05;1711534;82;21119;-66
2022/07/28 09:15:09;;;;;;;6.28;5.00;;;;;;;25.42;53.13;94728.08;1673074;82;21101;-60
2022/07/28 09:17:37;;;;;;;5.72;3.98;;;;;;;25.44;52.79;94729.06;1702135;82;21509;-60
2022/07/28 09:20:06;;;;;;;6.45;4.45;;;;;;;25.43;51.53;94729.59;1678567;83;21145;-57
2022/07/28 09:22:34;;;;;;;5.37;4.83;;;;;;;25.29;51.57;94737.31;1683154;83;21795;-59
2022/07/28 09:25:03;;;;;;;8.05;5.35;;;;;;;25.16;51.73;94739.36;1652709;83;21096;-63
2022/07/28 09:27:45;;;;;;;5.17;4.33;;;;;;;25.13;52.53;94734.81;1670073;84;21253;-56
2022/07/28 09:30:14;;;;;;;5.97;4.90;;;;;;;25.17;52.27;94733.83;1659312;83;21008;-61
2022/07/28 09:32:42;;;;;;;5.75;5.03;;;;;;;25.21;52.32;94728.66;1684280;83;21069;-57
2022/07/28 09:35:20;;;;;;;9.80;4.83;;;;;;;25.22;52.42;94727.35;1683762;83;21668;-58
2022/07/28 09:37:50;;;;;;;7.35;4.70;;;;;;;25.29;53.17;94723.89;1697611;82;21085;-59
2022/07/28 09:40:18;;;;;;;5.40;4.35;;;;;;;25.48;53.16;94730.16;1660038;83;21132;-56
2022/07/28 09:42:48;;;;;;;4.10;3.70;;;;;;;25.81;51.56;94728.02;1662217;84;21133;-67
2022/07/28 09:45:17;;;;;;;6.17;4.53;;;;;;;26.11;50.98;94724.22;1669675;83;21533;-68
2022/07/28 09:47:45;;;;;;;5.22;4.17;;;;;;;26.33;49.53;94722.27;1678876;82;22169;-59
2022/07/28 09:50:28;;;;;;;6.17;4.10;;;;;;;26.49;49.67;94724.61;1664217;83;21636;-65
2022/07/28 09:52:53;;;;;;;9.53;5.12;;;;;;;26.61;48.54;94728.00;1697836;82;21144;-59
2022/07/28 09:55:22;;;;;;;5.40;4.30;;;;;;;26.75;49.42;94727.26;1695157;82;21104;-59
2022/07/28 09:57:51;;;;;;;10.40;4.50;;;;;;;26.92;48.98;94729.75;1665106;84;21092;-67
2022/07/28 10:00:26;;;;;;;7.22;4.05;;;;;;;27.07;48.90;94724.85;1672695;83;21301;-56
2022/07/28 10:02:54;;;;;;;4.53;4.12;;;;;;;27.11;48.94;94723.22;1621431;86;21530;-56
2022/07/28 10:05:22;;;;;;;5.37;4.47;;;;;;;27.24;48.85;94725.91;1613174;87;21437;-58
2022/07/28 10:07:50;;;;;;;6.17;4.53;;;;;;;27.33;47.80;94721.82;1654941;83;21065;-57
2022/07/28 10:10:20;;;;;;;6.95;4.85;;;;;;;27.42;48.36;94726.97;1699605;83;21131;-62
2022/07/28 10:12:48;;;;;;;7.65;4.17;;;;;;;27.60;48.49;94729.48;1697589;83;21209;-63
2022/07/28 10:18:05;;;;;;;4.90;4.20;;;;;;;27.91;47.04;94729.00;1699494;83;21179;-60
2022/07/28 10:20:34;;;;;;;5.15;3.83;;;;;;;28.03;45.01;94730.91;1701415;83;21064;-59
2022/07/28 10:23:04;;;;;;;4.55;3.92;;;;;;;28.12;46.18;94726.88;1684823;83;22191;-65
2022/07/28 10:25:33;;;;;;;4.03;3.62;;;;;;;28.32;45.96;94725.23;1699570;82;21021;-64
2022/07/28 10:28:02;;;;;;;6.25;4.00;;;;;;;28.54;44.64;94721.66;1684693;83;21173;-63
2022/07/28 10:30:38;;;;;;;3.70;3.20;;;;;;;28.66;45.02;94717.15;1695834;83;21064;-67
2022/07/28 10:33:16;;;;;;;5.60;3.80;;;;;;;28.63;44.05;94719.70;1666567;83;21319;-59
2022/07/28 10:35:43;;;;;;;8.25;3.85;;;;;;;28.38;43.44;94728.66;1703625;82;21039;-57
2022/07/28 10:38:12;;;;;;;5.65;3.80;;;;;;;28.07;43.55;94727.05;1687987;83;21125;-57
2022/07/28 10:40:45;;;;;;;4.62;3.33;;;;;;;28.14;43.80;94727.72;1667999;83;21624;-60
2022/07/28 10:43:15;;;;;;;6.12;4.20;;;;;;;28.08;44.31;94721.48;1671568;82;21770;-64
2022/07/28 10:45:43;;;;;;;3.83;3.52;;;;;;;28.23;43.50;94725.77;1709261;82;21056;-61
2022/07/28 10:48:11;;;;;;;4.17;3.30;;;;;;;28.54;44.35;94725.91;1668371;83;21071;-60
2022/07/28 10:50:41;;;;;;;4.30;3.90;;;;;;;28.96;43.05;94727.09;1690453;83;21144;-61
2022/07/28 10:53:09;;;;;;;5.15;3.62;;;;;;;29.35;41.96;94722.20;1668036;83;21511;-70
2022/07/28 10:55:49;;;;;;;6.42;3.47;;;;;;;29.68;41.61;94730.24;1696860;83;21411;-66
2022/07/28 10:58:39;;;;;;;5.55;3.42;;;;;;;29.98;41.62;94730.86;1671631;85;21065;-63
2022/07/28 11:01:08;;;;;;;5.10;3.40;;;;;;;29.89;41.03;94731.48;1689152;83;21065;-59
2022/07/28 11:03:42;;;;;;;4.45;3.35;;;;;;;29.61;40.51;94718.27;1676808;83;21003;-61
2022/07/28 11:06:30;;;;;;;6.53;3.83;;;;;;;29.43;40.66;94721.50;1669385;84;21157;-59
2022/07/28 11:09:00;;;;;;;6.22;3.52;;;;;;;29.75;41.57;94724.45;1700751;82;21216;-57
2022/07/28 11:11:56;;;;;;;12.65;3.65;;;;;;;30.26;39.56;94724.11;1681399;83;21065;-57
2022/07/28 11:14:35;;;;;;;8.03;3.40;;;;;;;30.60;38.43;94723.64;1705739;83;20961;-67
2022/07/28 11:17:10;;;;;;;3.75;3.37;;;;;;;30.58;38.89;94726.31;1715348;81;21008;-63
2022/07/28 11:19:50;;;;;;;5.97;3.45;;;;;;;30.49;38.66;94725.48;1696685;82;21090;-57
2022/07/28 11:22:23;;;;;;;4.90;3.47;;;;;;;30.80;39.69;94727.45;1703519;82;21215;-57
2022/07/28 11:25:03;;;;;;;5.15;3.70;;;;;;;31.31;37.91;94728.36;1696974;81;21115;-62
2022/07/28 11:27:45;;;;;;;5.42;2.62;;;;;;;31.69;36.48;94719.42;1693045;82;20976;-57
2022/07/28 11:30:36;;;;;;;3.10;2.45;;;;;;;31.97;36.14;94724.67;1712799;81;21096;-55
2022/07/28 11:33:08;;;;;;;6.00;3.15;;;;;;;32.40;36.46;94719.64;1725660;82;21049;-66
2022/07/28 11:35:46;;;;;;;3.22;2.92;;;;;;;32.74;34.67;94710.25;1696601;82;21356;-66
2022/07/28 11:38:14;;;;;;;5.50;3.08;;;;;;;32.96;35.14;94716.25;1708906;82;21463;-59
2022/07/28 11:40:47;;;;;;;4.28;3.08;;;;;;;33.24;34.44;94715.58;1699244;82;20997;-59
2022/07/28 11:43:31;;;;;;;3.90;2.30;;;;;;;33.46;34.06;94709.47;1665014;84;21109;-60
2022/07/28 11:46:09;;;;;;;3.42;2.37;;;;;;;33.78;33.28;94711.92;1653648;84;21006;-61
2022/07/28 11:48:45;;;;;;;4.90;2.67;;;;;;;33.80;33.29;94712.73;1682043;83;21260;-61